Main page
METAR-TAF:

METAR-TAF

Airports :

Gonabad, Iran

latitude: 34-22-51N, longitude: 58-38-23E, elevation: 1100 m

Current weather observation

The report was made 40 minutes ago, at 03:00 UTC
Wind 4 kt from the South/Southeast
Temperature 13°C
Humidity 26%
Pressure 1022 hPa

METAR: OIMD 290300Z AUTO 15004KT //// // ////// 13/M06 Q1022

Time: 08:10 (03:40 UTC)


TAF: missing

Weather observations and forecasts of more than 4000 airports (METAR and TAF reports).

The available stations are represented by yellow and red dots on the map.

Hover mouse over dot to see the name of the station.

Then click to see weather observations and forecasts.

To change the map : click on the green buttons with a black cross to zoom in, on the green button with a dash to zoom out, or on the green arrows for adjacent maps.


METAR-TAF: